Terminal Aerodrome Forecast
Issued by NWS

Home | Current Version | Previous Version | Text Only | Print | Product List | Glossary On
Versions: 1 2 3 4 5 6 7 8 9 10 11 12 13 14 15 16
000
FTUS41 KBTV 191700
TAFSLK
TAF
KSLK 191728Z 1918/2018 33008KT P6SM BKN025 OVC035
      TEMPO 1918/1922 SCT025 BKN035
     FM192200 35007KT P6SM SCT035
     FM200000 VRB03KT P6SM SKC
     FM201400 18006KT P6SM SKC=

USA.gov is the U.S. government's official web portal to all federal, state and local government web resources and services.